Time;durP1;ratioP1;P1;durP2;ratioP2;P2;SDS_P1;SDS_P2;PMS_P1;PMS_P2;Temp;Humidity;BMP_temperature;BMP_pressure;BME280_temperature;BME280_humidity;BME280_pressure;Samples;Min_cycle;Max_cycle;Signal;HPM_P1;HPM_P2
2021/01/29 00:01:21;;;;;;;33.60;17.30;;;5.80;93.80;;;;;;5078873;28;20413;-79
2021/01/29 00:03:46;;;;;;;34.77;17.50;;;5.80;93.50;;;;;;5093400;28;20032;-78
2021/01/29 00:06:12;;;;;;;34.93;17.23;;;5.80;93.40;;;;;;5092042;28;20032;-79
2021/01/29 00:08:38;;;;;;;34.77;16.63;;;5.80;93.50;;;;;;5075310;28;20032;-79
2021/01/29 00:11:04;;;;;;;36.83;17.33;;;5.80;93.50;;;;;;5074924;28;20032;-79
2021/01/29 00:13:29;;;;;;;36.50;18.40;;;5.80;93.50;;;;;;5076439;28;20027;-78
2021/01/29 00:15:56;;;;;;;35.20;17.27;;;5.80;93.50;;;;;;5076519;28;20032;-79
2021/01/29 00:18:22;;;;;;;41.40;19.23;;;5.80;93.60;;;;;;5076404;28;20380;-79
2021/01/29 00:20:48;;;;;;;41.47;19.50;;;5.80;93.60;;;;;;5075413;28;20107;-79
2021/01/29 00:23:15;;;;;;;39.60;19.50;;;5.80;93.60;;;;;;5076415;28;20099;-79
2021/01/29 00:25:45;;;;;;;39.97;19.37;;;5.80;93.60;;;;;;5092818;28;20026;-78
2021/01/29 00:28:11;;;;;;;42.57;20.70;;;5.80;93.60;;;;;;5095079;28;20110;-78
2021/01/29 00:30:37;;;;;;;40.80;19.87;;;5.80;93.60;;;;;;5094643;28;20095;-79
2021/01/29 00:33:05;;;;;;;45.53;20.83;;;5.80;93.60;;;;;;5094880;28;20027;-79
2021/01/29 00:35:32;;;;;;;40.20;20.53;;;5.80;93.60;;;;;;5096205;28;20471;-79
2021/01/29 00:38:00;;;;;;;44.03;20.40;;;5.80;93.60;;;;;;5095035;28;20020;-79
2021/01/29 00:40:26;;;;;;;41.37;20.73;;;5.80;93.70;;;;;;5096133;28;20098;-79
2021/01/29 00:42:52;;;;;;;42.43;21.47;;;5.80;93.70;;;;;;5094876;28;20019;-79
2021/01/29 00:45:21;;;;;;;46.57;21.57;;;5.80;93.70;;;;;;5094512;28;20035;-79
2021/01/29 00:47:47;;;;;;;53.93;23.33;;;5.80;93.70;;;;;;5094753;28;20073;-79
2021/01/29 00:50:14;;;;;;;49.73;21.97;;;5.70;93.80;;;;;;5092680;28;20033;-79
2021/01/29 00:52:40;;;;;;;47.43;21.60;;;5.70;93.70;;;;;;5094330;28;20036;-80
2021/01/29 00:55:07;;;;;;;53.23;23.40;;;5.70;93.80;;;;;;5095877;28;20081;-79
2021/01/29 00:57:33;;;;;;;55.90;23.43;;;5.80;93.80;;;;;;5095504;28;20444;-79
2021/01/29 00:59:59;;;;;;;53.50;24.17;;;5.70;93.80;;;;;;5095474;28;20059;-79
2021/01/29 01:02:24;;;;;;;60.27;25.33;;;5.80;93.80;;;;;;5093351;28;20028;-79
2021/01/29 01:04:50;;;;;;;61.60;24.13;;;5.70;93.80;;;;;;5094630;28;20108;-80
2021/01/29 01:07:16;;;;;;;54.70;22.67;;;5.80;93.90;;;;;;5094388;28;20024;-79
2021/01/29 01:09:43;;;;;;;55.10;23.20;;;5.80;93.90;;;;;;5095477;28;20409;-79
2021/01/29 01:12:09;;;;;;;55.33;22.47;;;5.80;93.90;;;;;;5095543;28;20057;-79
2021/01/29 01:14:34;;;;;;;55.90;24.70;;;5.80;94.00;;;;;;5077427;28;20024;-79
2021/01/29 01:17:00;;;;;;;53.70;24.23;;;5.90;94.00;;;;;;5095527;28;20069;-79
2021/01/29 01:19:26;;;;;;;50.63;22.83;;;5.80;94.00;;;;;;5095492;28;20024;-78
2021/01/29 01:21:51;;;;;;;57.17;24.27;;;5.90;94.10;;;;;;5094117;28;20541;-78
2021/01/29 01:24:18;;;;;;;57.30;25.60;;;5.90;94.10;;;;;;5093832;28;20032;-73
2021/01/29 01:26:44;;;;;;;66.20;26.70;;;5.90;94.10;;;;;;5093924;28;20079;-73
2021/01/29 01:29:09;;;;;;;61.33;25.93;;;5.90;94.00;;;;;;5095015;28;20063;-73
2021/01/29 01:31:35;;;;;;;60.97;25.60;;;5.90;94.10;;;;;;5093645;28;20058;-73
2021/01/29 01:34:01;;;;;;;65.13;26.47;;;5.90;94.10;;;;;;5095023;28;20030;-73
2021/01/29 01:36:26;;;;;;;78.33;26.00;;;5.90;94.10;;;;;;5095048;28;20024;-74
2021/01/29 01:38:52;;;;;;;65.37;25.43;;;5.90;94.10;;;;;;5095018;28;20028;-74
2021/01/29 01:41:18;;;;;;;63.67;26.80;;;5.90;94.10;;;;;;5094884;28;20364;-74
2021/01/29 01:43:43;;;;;;;67.90;25.67;;;5.90;94.10;;;;;;5094992;28;20039;-74
2021/01/29 01:46:12;;;;;;;64.40;27.03;;;6.00;94.20;;;;;;5095209;28;20046;-73
2021/01/29 01:49:04;;;;;;;84.03;26.67;;;6.10;94.20;;;;;;5094810;28;20050;-74
2021/01/29 01:51:45;;;;;;;63.37;26.77;;;6.00;94.20;;;;;;5094630;28;20111;-74
2021/01/29 01:54:39;;;;;;;79.13;27.27;;;6.00;94.20;;;;;;5094681;28;20024;-79
2021/01/29 01:57:06;;;;;;;64.47;25.20;;;6.00;94.20;;;;;;5090439;28;20117;-79
2021/01/29 01:59:36;;;;;;;63.00;24.57;;;5.90;94.20;;;;;;5093569;28;20039;-79
2021/01/29 02:02:04;;;;;;;62.00;26.70;;;6.00;94.20;;;;;;5094657;28;20028;-79
2021/01/29 02:04:32;;;;;;;64.77;25.60;;;6.00;94.30;;;;;;5093318;28;20081;-79
2021/01/29 02:07:14;;;;;;;57.60;25.47;;;6.00;94.30;;;;;;5094684;28;20028;-79
2021/01/29 02:09:44;;;;;;;57.60;25.90;;;6.00;94.30;;;;;;5094331;28;20089;-79
2021/01/29 02:12:10;;;;;;;57.53;25.40;;;6.00;94.40;;;;;;5094001;28;20024;-79
2021/01/29 02:14:35;;;;;;;59.27;24.63;;;6.00;94.40;;;;;;5094323;28;20487;-79
2021/01/29 02:17:29;;;;;;;61.20;26.27;;;6.10;94.40;;;;;;5092990;28;20375;-79
2021/01/29 02:20:06;;;;;;;55.03;25.10;;;6.10;94.40;;;;;;5092982;28;20174;-80
2021/01/29 02:23:00;;;;;;;60.97;26.73;;;6.10;94.40;;;;;;5092962;28;20118;-79
2021/01/29 02:26:07;;;;;;;61.42;26.42;;;6.10;94.40;;;;;;5094478;28;20165;-73
2021/01/29 02:28:41;;;;;;;64.17;27.30;;;6.10;94.50;;;;;;5072640;28;20122;-74
2021/01/29 02:32:01;;;;;;;57.53;26.53;;;6.10;94.50;;;;;;5093995;28;20332;-73
2021/01/29 02:35:20;;;;;;;58.37;26.93;;;6.20;94.60;;;;;;5071639;28;20035;-72
2021/01/29 02:38:06;;;;;;;54.70;23.87;;;6.20;94.50;;;;;;5071494;28;20067;-73
2021/01/29 02:40:38;;;;;;;58.13;26.33;;;6.20;94.50;;;;;;5071401;28;20063;-73
2021/01/29 02:43:08;;;;;;;56.80;25.83;;;6.20;94.60;;;;;;5088225;28;20115;-73
2021/01/29 02:45:42;;;;;;;50.93;25.77;;;6.20;94.60;;;;;;5093815;28;20053;-73
2021/01/29 02:48:30;;;;;;;49.83;23.90;;;6.20;94.50;;;;;;5093622;28;20057;-74
2021/01/29 02:51:06;;;;;;;51.90;23.37;;;6.30;94.60;;;;;;5093581;28;20040;-73
2021/01/29 02:53:52;;;;;;;48.07;23.57;;;6.40;94.70;;;;;;5093563;28;20124;-73
2021/01/29 02:56:30;;;;;;;49.07;23.03;;;6.30;94.60;;;;;;5093655;28;20016;-73
2021/01/29 02:59:08;;;;;;;47.60;22.20;;;6.30;94.60;;;;;;5092357;28;20027;-73
2021/01/29 03:01:39;;;;;;;52.40;22.33;;;6.40;94.70;;;;;;5093484;28;20034;-73
2021/01/29 03:04:14;;;;;;;50.53;22.03;;;6.40;94.70;;;;;;5092128;28;20043;-73
2021/01/29 03:07:07;;;;;;;49.53;21.50;;;6.40;94.60;;;;;;5093516;28;20032;-73
2021/01/29 03:09:46;;;;;;;46.57;20.80;;;6.40;94.70;;;;;;5093342;28;20028;-73
2021/01/29 03:12:28;;;;;;;45.23;20.57;;;6.40;94.70;;;;;;5093343;28;20103;-72
2021/01/29 03:15:02;;;;;;;47.97;20.93;;;6.40;94.70;;;;;;5093395;28;20494;-73
2021/01/29 03:17:36;;;;;;;42.70;21.50;;;6.50;94.70;;;;;;5093355;28;20118;-73
2021/01/29 03:20:16;;;;;;;46.97;20.73;;;6.40;94.80;;;;;;5092013;28;20021;-73
2021/01/29 03:22:48;;;;;;;45.30;19.37;;;6.50;94.80;;;;;;5093010;28;20020;-73
2021/01/29 03:25:19;;;;;;;42.13;19.70;;;6.50;94.90;;;;;;5092449;28;20107;-73
2021/01/29 03:27:49;;;;;;;44.03;19.23;;;6.50;94.90;;;;;;5091880;28;20028;-73
2021/01/29 03:30:23;;;;;;;43.33;20.03;;;6.60;95.30;;;;;;5093109;28;20020;-73
2021/01/29 03:32:51;;;;;;;43.95;19.92;;;6.60;95.00;;;;;;5093066;28;20055;-72
2021/01/29 03:35:27;;;;;;;41.07;19.07;;;6.60;95.10;;;;;;5093055;28;20074;-73
2021/01/29 03:38:19;;;;;;;39.73;18.53;;;6.60;95.10;;;;;;5088570;28;20919;-73
2021/01/29 03:41:02;;;;;;;40.17;18.07;;;6.70;95.10;;;;;;5093216;28;20039;-73
2021/01/29 03:43:50;;;;;;;34.03;17.37;;;6.70;95.10;;;;;;5092798;28;20021;-72
2021/01/29 03:46:25;;;;;;;34.57;16.33;;;6.70;95.10;;;;;;5081994;28;20441;-73
2021/01/29 03:49:09;;;;;;;40.60;18.40;;;6.80;95.10;;;;;;5093316;28;20058;-72
2021/01/29 03:51:59;;;;;;;36.58;17.33;;;6.80;95.10;;;;;;5093006;28;20086;-73
2021/01/29 03:54:33;;;;;;;36.33;17.10;;;6.80;95.10;;;;;;5093587;28;20016;-73
2021/01/29 03:57:36;;;;;;;34.53;15.50;;;6.90;95.20;;;;;;5092070;28;20016;-73
2021/01/29 04:00:23;;;;;;;32.93;15.23;;;6.90;95.20;;;;;;5093205;28;20452;-73
2021/01/29 04:03:07;;;;;;;29.67;15.43;;;6.90;95.20;;;;;;5093275;28;20028;-73
2021/01/29 04:05:44;;;;;;;30.65;15.82;;;6.90;95.20;;;;;;5093146;28;20032;-73
2021/01/29 04:08:22;;;;;;;31.30;15.13;;;6.90;95.20;;;;;;5093373;28;20081;-73
2021/01/29 04:10:52;;;;;;;30.33;14.47;;;7.00;95.20;;;;;;5093217;28;20032;-73
2021/01/29 04:13:25;;;;;;;30.40;15.63;;;7.00;95.30;;;;;;5092118;28;20013;-73
2021/01/29 04:15:53;;;;;;;29.77;14.83;;;7.00;95.30;;;;;;5091625;28;20103;-73
2021/01/29 04:18:40;;;;;;;28.30;14.40;;;7.10;95.30;;;;;;5093324;28;20023;-73
2021/01/29 04:21:18;;;;;;;24.50;13.53;;;7.10;95.40;;;;;;5092808;28;20016;-74
2021/01/29 04:24:07;;;;;;;27.07;14.10;;;7.10;95.40;;;;;;5093253;28;20535;-73
2021/01/29 04:26:39;;;;;;;25.53;13.47;;;7.10;95.40;;;;;;5092779;28;20031;-73
2021/01/29 04:29:10;;;;;;;25.00;13.30;;;7.20;95.40;;;;;;5092788;28;20016;-73
2021/01/29 04:31:38;;;;;;;26.80;14.00;;;7.20;95.40;;;;;;5092904;28;20059;-73
2021/01/29 04:34:20;;;;;;;25.33;12.57;;;7.20;95.50;;;;;;5092795;28;20113;-72
2021/01/29 04:36:49;;;;;;;22.10;12.50;;;7.20;95.50;;;;;;5095879;28;20020;-73
2021/01/29 04:39:23;;;;;;;24.10;12.60;;;7.20;95.50;;;;;;5096699;28;20032;-73
2021/01/29 04:42:00;;;;;;;22.70;13.07;;;7.30;95.50;;;;;;5096337;28;20376;-73
2021/01/29 04:45:00;;;;;;;20.23;11.60;;;7.30;95.50;;;;;;5096555;28;20035;-73
2021/01/29 04:48:03;;;;;;;22.87;11.57;;;7.30;95.50;;;;;;5094951;28;20395;-73
2021/01/29 04:50:50;;;;;;;21.83;11.57;;;7.30;95.40;;;;;;5095231;28;20398;-73
2021/01/29 04:53:53;;;;;;;26.73;13.87;;;7.40;95.40;;;;;;5094703;28;20046;-72
2021/01/29 04:56:47;;;;;;;27.00;12.43;;;7.40;95.40;;;;;;5094617;28;20382;-73
2021/01/29 04:59:42;;;;;;;22.42;12.25;;;7.40;95.40;;;;;;5095868;28;20027;-73
2021/01/29 05:02:27;;;;;;;24.63;12.47;;;7.40;95.40;;;;;;5086473;28;20040;-73
2021/01/29 05:05:16;;;;;;;23.50;12.50;;;7.40;95.40;;;;;;5094813;28;20108;-73
2021/01/29 05:07:41;;;;;;;21.20;12.03;;;7.40;95.40;;;;;;5093630;28;20546;-73
2021/01/29 05:10:24;;;;;;;20.17;11.57;;;7.40;95.40;;;;;;5095603;28;20111;-73
2021/01/29 05:13:05;;;;;;;20.57;11.53;;;7.40;95.40;;;;;;5095833;28;20495;-73
2021/01/29 05:16:08;;;;;;;25.83;12.70;;;7.50;95.40;;;;;;5094970;28;20016;-73
2021/01/29 05:19:03;;;;;;;22.77;12.00;;;7.50;95.40;;;;;;5095568;28;20025;-73
2021/01/29 05:21:55;;;;;;;24.25;11.68;;;7.50;95.40;;;;;;5073397;28;20039;-73
2021/01/29 05:24:30;;;;;;;21.93;11.07;;;7.50;95.40;;;;;;5095544;28;20035;-73
2021/01/29 05:27:30;;;;;;;21.27;11.70;;;7.50;95.40;;;;;;5095510;28;20024;-73
2021/01/29 05:30:10;;;;;;;21.30;10.80;;;7.50;95.40;;;;;;5076378;28;20052;-73
2021/01/29 05:32:57;;;;;;;20.87;11.53;;;7.50;95.40;;;;;;5095474;28;20038;-73
2021/01/29 05:35:48;;;;;;;20.20;11.67;;;7.50;95.40;;;;;;5095404;28;20102;-73
2021/01/29 05:38:35;;;;;;;23.97;11.40;;;7.50;95.40;;;;;;5095253;28;20024;-73
2021/01/29 05:41:23;;;;;;;20.47;10.57;;;7.60;95.50;;;;;;5094500;28;20051;-73
2021/01/29 05:43:58;;;;;;;22.73;11.27;;;7.60;95.50;;;;;;5094907;28;20414;-73
2021/01/29 05:47:02;;;;;;;17.50;10.00;;;7.60;95.60;;;;;;5094664;28;20074;-73
2021/01/29 05:49:46;;;;;;;20.67;10.80;;;7.70;95.60;;;;;;5094772;28;20085;-73
2021/01/29 05:52:29;;;;;;;20.98;10.80;;;7.70;95.70;;;;;;5094659;28;20039;-73
2021/01/29 05:55:19;;;;;;;17.43;9.77;;;7.80;95.70;;;;;;5095124;28;20024;-73
2021/01/29 05:58:26;;;;;;;22.67;11.97;;;7.80;95.80;;;;;;5095012;28;20501;-72
2021/01/29 06:01:01;;;;;;;18.50;9.87;;;7.80;96.10;;;;;;5094670;28;20043;-73
2021/01/29 06:03:39;;;;;;;13.20;7.80;;;7.90;97.20;;;;;;5094803;28;20069;-73
2021/01/29 06:06:34;;;;;;;14.43;7.67;;;8.00;97.60;;;;;;5093572;28;20032;-73
2021/01/29 06:09:11;;;;;;;13.00;7.23;;;8.10;97.50;;;;;;5043845;28;20037;-73
2021/01/29 06:11:43;;;;;;;14.00;6.80;;;8.20;97.50;;;;;;5086667;28;20036;-74
2021/01/29 06:14:38;;;;;;;15.47;6.77;;;8.30;97.70;;;;;;5093611;28;20472;-73
2021/01/29 06:17:28;;;;;;;16.03;6.47;;;8.40;97.80;;;;;;5093012;28;20098;-73
2021/01/29 06:20:32;;;;;;;11.10;6.67;;;8.50;98.00;;;;;;5094754;28;20077;-73
2021/01/29 06:23:10;;;;;;;13.60;7.53;;;8.50;98.10;;;;;;5093879;28;20017;-73
2021/01/29 06:26:07;;;;;;;12.60;7.00;;;8.60;98.20;;;;;;5093222;28;20043;-73
2021/01/29 06:28:47;;;;;;;12.73;7.07;;;8.60;98.10;;;;;;5093330;28;20027;-73
2021/01/29 06:31:55;;;;;;;12.07;7.03;;;8.60;98.20;;;;;;5094121;28;20024;-73
2021/01/29 06:35:05;;;;;;;13.37;7.10;;;8.70;98.30;;;;;;5070257;28;20037;-73
2021/01/29 06:37:48;;;;;;;15.23;8.30;;;8.70;98.40;;;;;;5054660;28;20033;-74
2021/01/29 06:40:43;;;;;;;17.50;8.77;;;8.70;98.40;;;;;;5046618;28;20499;-73
2021/01/29 06:43:39;;;;;;;17.97;8.80;;;8.70;98.40;;;;;;5084975;28;20055;-73
2021/01/29 06:46:42;;;;;;;14.47;8.27;;;8.70;98.40;;;;;;5081734;28;20209;-73
2021/01/29 06:49:44;;;;;;;18.77;8.63;;;8.70;98.40;;;;;;5072361;28;20098;-73
2021/01/29 06:52:27;;;;;;;11.57;6.67;;;8.70;98.50;;;;;;5076087;28;20124;-74
2021/01/29 06:55:30;;;;;;;15.75;7.68;;;8.70;98.60;;;;;;5072626;28;20024;-73
2021/01/29 06:58:16;;;;;;;18.37;8.27;;;8.60;98.60;;;;;;5073449;28;20503;-73
2021/01/29 07:01:12;;;;;;;16.10;8.03;;;8.60;98.60;;;;;;5083076;28;20110;-73
2021/01/29 07:04:19;;;;;;;19.93;8.50;;;8.60;98.60;;;;;;5093420;28;20039;-74
2021/01/29 07:07:09;;;;;;;13.83;7.33;;;8.60;98.80;;;;;;5093402;28;20028;-73
2021/01/29 07:10:00;;;;;;;15.30;7.53;;;8.60;98.80;;;;;;5088624;28;20478;-74
2021/01/29 07:13:01;;;;;;;16.63;7.60;;;8.50;98.80;;;;;;5081562;28;20028;-74
2021/01/29 07:15:52;;;;;;;16.43;7.83;;;8.50;98.90;;;;;;5080900;28;20024;-73
2021/01/29 07:18:58;;;;;;;19.30;7.97;;;8.50;98.90;;;;;;5082289;28;20035;-78
2021/01/29 07:21:55;;;;;;;19.27;7.90;;;8.50;99.00;;;;;;5082291;28;20078;-79
2021/01/29 07:24:48;;;;;;;16.43;8.40;;;8.50;99.00;;;;;;5081256;28;20162;-79
2021/01/29 07:27:17;;;;;;;17.47;8.33;;;8.50;99.00;;;;;;5072985;28;20101;-79
2021/01/29 07:30:00;;;;;;;18.93;9.40;;;8.50;99.10;;;;;;5071249;28;20044;-81
2021/01/29 07:32:48;;;;;;;16.00;8.60;;;8.50;99.20;;;;;;5072686;28;20040;-79
2021/01/29 07:35:38;;;;;;;20.20;9.80;;;8.50;99.20;;;;;;5073847;28;20507;-79
2021/01/29 07:38:22;;;;;;;19.77;9.27;;;8.50;99.20;;;;;;5093304;28;20146;-81
2021/01/29 07:40:56;;;;;;;20.73;9.38;;;8.50;99.20;;;;;;5092587;28;20103;-79
2021/01/29 07:43:46;;;;;;;22.73;8.95;;;8.50;99.30;;;;;;5092859;28;20024;-82
2021/01/29 07:46:38;;;;;;;19.33;9.13;;;8.50;99.30;;;;;;5092442;28;20149;-80
2021/01/29 07:49:28;;;;;;;18.67;8.70;;;8.50;99.30;;;;;;5092654;28;20475;-79
2021/01/29 07:52:01;;;;;;;16.23;7.07;;;8.50;99.40;;;;;;5091303;28;20190;-84
2021/01/29 07:54:36;;;;;;;10.20;5.30;;;8.50;99.70;;;;;;5092659;28;20020;-80
2021/01/29 07:57:24;;;;;;;13.23;4.97;;;8.50;99.40;;;;;;5072881;28;20016;-79
2021/01/29 08:00:14;;;;;;;9.43;4.13;;;8.50;99.50;;;;;;5072858;28;20032;-81
2021/01/29 08:03:12;;;;;;;9.47;4.20;;;8.50;99.50;;;;;;5072628;28;20095;-83
2021/01/29 08:05:44;;;;;;;9.17;4.37;;;8.50;99.50;;;;;;5072987;28;20426;-79
2021/01/29 08:08:20;;;;;;;10.33;4.27;;;8.50;99.40;;;;;;5072500;28;20054;-79
2021/01/29 08:10:50;;;;;;;8.40;4.83;;;8.50;99.50;;;;;;5078536;28;20039;-80
2021/01/29 08:13:35;;;;;;;13.83;6.70;;;8.50;99.50;;;;;;5096989;28;20020;-80
2021/01/29 08:16:27;;;;;;;11.40;6.47;;;8.50;99.50;;;;;;5096673;28;20483;-79
2021/01/29 08:18:59;;;;;;;22.87;10.17;;;8.50;99.50;;;;;;5095485;28;20032;-79
2021/01/29 08:22:03;;;;;;;20.47;10.80;;;8.60;99.60;;;;;;5095565;28;20069;-79
2021/01/29 08:25:06;;;;;;;20.67;11.52;;;8.60;99.60;;;;;;5092767;28;20044;-83
2021/01/29 08:27:34;;;;;;;25.17;12.30;;;8.60;99.70;;;;;;5081891;28;20036;-74
2021/01/29 08:30:06;;;;;;;24.67;12.57;;;8.60;99.70;;;;;;5088970;28;20480;-75
2021/01/29 08:32:59;;;;;;;24.97;11.30;;;8.70;99.80;;;;;;5077416;28;20029;-73
2021/01/29 08:35:58;;;;;;;22.10;8.37;;;8.70;99.80;;;;;;5076313;28;20031;-81
2021/01/29 08:38:35;;;;;;;22.27;8.13;;;8.70;99.80;;;;;;5093602;28;20069;-79
2021/01/29 08:41:06;;;;;;;14.57;6.50;;;8.70;99.80;;;;;;5095385;28;20089;-79
2021/01/29 08:43:38;;;;;;;12.50;4.93;;;8.70;99.70;;;;;;5089295;28;20422;-81
2021/01/29 08:46:22;;;;;;;15.40;4.57;;;8.70;99.70;;;;;;5095902;28;20050;-78
2021/01/29 08:49:07;;;;;;;11.15;3.83;;;8.70;99.70;;;;;;5096549;28;20024;-82
2021/01/29 08:52:00;;;;;;;7.03;3.27;;;8.70;99.70;;;;;;5096102;28;20506;-83
2021/01/29 08:54:50;;;;;;;13.43;2.77;;;8.70;99.70;;;;;;5096201;28;20027;-83
2021/01/29 08:57:40;;;;;;;7.90;2.40;;;8.70;99.60;;;;;;5096171;28;20052;-83
2021/01/29 09:00:23;;;;;;;5.97;1.90;;;8.70;99.60;;;;;;5095032;28;20024;-79
2021/01/29 09:03:09;;;;;;;3.53;1.23;;;8.70;99.60;;;;;;5096009;28;20418;-81
2021/01/29 09:05:39;;;;;;;5.53;1.13;;;8.70;99.60;;;;;;5079963;28;20033;-80
2021/01/29 09:08:07;;;;;;;3.90;0.80;;;8.70;99.60;;;;;;5094501;28;20020;-78
2021/01/29 09:10:59;;;;;;;3.17;0.83;;;8.60;99.50;;;;;;5095259;28;20052;-81
2021/01/29 09:13:25;;;;;;;3.57;0.70;;;8.60;99.50;;;;;;5094246;28;20418;-79
2021/01/29 09:16:09;;;;;;;3.27;0.60;;;8.60;99.50;;;;;;5093974;28;20484;-80
2021/01/29 09:18:48;;;;;;;4.30;0.80;;;8.60;99.50;;;;;;5094324;28;20023;-79
2021/01/29 09:21:16;;;;;;;2.67;0.50;;;8.60;99.50;;;;;;5095139;28;20585;-79
2021/01/29 09:24:06;;;;;;;1.03;0.30;;;8.50;99.50;;;;;;5094992;28;20039;-83
2021/01/29 09:26:41;;;;;;;1.53;0.40;;;8.50;99.50;;;;;;5095551;28;20157;-81
2021/01/29 09:29:06;;;;;;;;;;;8.50;99.50;;;;;;5095888;28;20107;-78
2021/01/29 09:31:35;;;;;;;1.30;0.40;;;8.50;99.50;;;;;;5095452;28;20383;-80
2021/01/29 09:34:14;;;;;;;2.50;0.43;;;8.40;99.40;;;;;;5093935;28;20043;-79
2021/01/29 09:36:49;;;;;;;2.17;0.30;;;8.40;99.40;;;;;;5095318;28;20055;-81
2021/01/29 09:39:21;;;;;;;1.20;0.47;;;8.40;99.40;;;;;;5088757;28;20035;-82
2021/01/29 09:42:05;;;;;;;3.00;0.60;;;8.40;99.50;;;;;;5093842;28;20067;-84
2021/01/29 09:44:39;;;;;;;1.63;0.43;;;8.40;99.50;;;;;;5093770;28;20395;-84
2021/01/29 09:47:07;;;;;;;1.77;0.30;;;8.40;99.50;;;;;;5093808;28;20054;-83
2021/01/29 09:49:36;;;;;;;1.23;0.20;;;8.40;99.50;;;;;;5086546;28;20119;-82
2021/01/29 09:52:37;;;;;;;0.97;0.20;;;8.40;99.50;;;;;;5084023;28;20073;-82
2021/01/29 09:55:15;;;;;;;0.93;0.30;;;8.30;99.50;;;;;;5086124;28;20041;-80
2021/01/29 09:58:02;;;;;;;1.67;0.30;;;8.30;99.50;;;;;;5080595;28;20052;-77
2021/01/29 10:00:32;;;;;;;2.83;0.30;;;8.40;99.50;;;;;;5081125;28;20416;-76
2021/01/29 10:03:07;;;;;;;0.90;0.20;;;8.30;99.50;;;;;;5090494;28;20032;-76
2021/01/29 10:05:48;;;;;;;3.47;0.40;;;8.30;99.50;;;;;;5073008;28;20559;-77
2021/01/29 10:08:17;;;;;;;1.50;0.20;;;8.30;99.50;;;;;;5081613;28;20393;-76
2021/01/29 10:11:04;;;;;;;1.83;0.20;;;8.40;99.50;;;;;;5092398;28;20030;-77
2021/01/29 10:13:48;;;;;;;2.43;0.20;;;8.30;99.50;;;;;;5072501;28;20025;-77
2021/01/29 10:16:24;;;;;;;2.28;0.20;;;8.40;99.50;;;;;;5073306;28;20029;-76
2021/01/29 10:19:27;;;;;;;2.37;0.20;;;8.30;99.50;;;;;;5073305;28;20021;-76
2021/01/29 10:21:59;;;;;;;1.80;0.20;;;8.40;99.50;;;;;;5066201;28;20111;-76
2021/01/29 10:24:39;;;;;;;0.93;0.20;;;8.50;99.50;;;;;;5072922;28;20031;-77
2021/01/29 10:27:35;;;;;;;2.70;0.20;;;8.30;99.50;;;;;;5074293;28;20484;-76
2021/01/29 10:30:15;;;;;;;2.90;0.30;;;8.40;99.60;;;;;;5074214;28;20032;-76
2021/01/29 10:32:50;;;;;;;1.90;0.20;;;8.40;99.60;;;;;;5073853;28;20035;-76
2021/01/29 10:35:28;;;;;;;1.37;0.20;;;8.50;99.60;;;;;;5075621;28;20025;-77
2021/01/29 10:38:13;;;;;;;1.07;0.10;;;8.50;99.60;;;;;;5075437;28;20029;-76
2021/01/29 10:40:43;;;;;;;2.43;0.10;;;8.60;99.70;;;;;;5072782;28;20078;-76
2021/01/29 10:43:34;;;;;;;0.70;0.20;;;8.60;99.70;;;;;;5072476;28;20035;-76
2021/01/29 10:46:02;;;;;;;2.70;0.20;;;8.70;99.80;;;;;;5072687;28;20100;-77
2021/01/29 10:48:30;;;;;;;0.53;0.10;;;8.70;99.80;;;;;;5074817;28;20047;-76
2021/01/29 10:51:08;;;;;;;1.43;0.20;;;8.80;99.80;;;;;;5073423;28;20028;-73
2021/01/29 10:53:35;;;;;;;1.03;0.20;;;8.90;99.80;;;;;;5074164;28;20123;-74
2021/01/29 10:56:08;;;;;;;2.27;0.20;;;8.90;99.80;;;;;;5039296;28;20025;-74
2021/01/29 10:58:40;;;;;;;1.20;0.20;;;9.00;99.80;;;;;;5091458;28;20107;-75
2021/01/29 11:01:12;;;;;;;0.67;0.20;;;9.00;99.90;;;;;;5091722;28;20028;-75
2021/01/29 11:03:57;;;;;;;1.80;0.20;;;9.10;99.90;;;;;;5081298;28;20067;-74
2021/01/29 11:06:41;;;;;;;1.87;0.30;;;9.10;99.90;;;;;;5082490;28;20116;-75
2021/01/29 11:09:15;;;;;;;2.80;0.30;;;9.20;99.90;;;;;;5092517;28;20125;-77
2021/01/29 11:11:43;;;;;;;;;;;9.30;99.90;;;;;;5093788;28;20108;-75
2021/01/29 11:14:24;;;;;;;2.23;0.30;;;9.40;99.90;;;;;;5093635;28;19903;-77
2021/01/29 11:17:13;;;;;;;1.43;0.27;;;9.50;99.90;;;;;;5092269;28;20019;-75
2021/01/29 11:19:48;;;;;;;0.70;0.20;;;9.60;99.90;;;;;;5087551;28;20357;-74
2021/01/29 11:22:16;;;;;;;2.53;0.30;;;9.60;99.90;;;;;;5080229;28;20617;-76
2021/01/29 11:25:12;;;;;;;2.67;0.33;;;9.60;99.90;;;;;;5090295;28;20038;-75
2021/01/29 11:27:46;;;;;;;0.97;0.20;;;9.50;99.90;;;;;;5091775;28;20048;-76
2021/01/29 11:30:33;;;;;;;1.00;0.30;;;9.60;99.90;;;;;;5082555;28;20051;-77
2021/01/29 11:33:06;;;;;;;2.03;0.20;;;9.60;99.90;;;;;;5088383;28;20476;-77
2021/01/29 11:35:53;;;;;;;1.60;0.30;;;9.60;99.90;;;;;;5093131;28;20028;-78
2021/01/29 11:38:32;;;;;;;1.47;0.20;;;9.60;99.90;;;;;;5093473;28;20633;-76
2021/01/29 11:41:16;;;;;;;1.40;0.30;;;9.60;99.90;;;;;;5093092;28;20024;-75
2021/01/29 11:43:59;;;;;;;2.83;0.25;;;9.60;99.90;;;;;;5093273;28;20483;-75
2021/01/29 11:46:39;;;;;;;2.33;0.20;;;9.70;99.90;;;;;;5096040;28;20031;-75
2021/01/29 11:49:08;;;;;;;2.40;0.30;;;9.70;99.90;;;;;;5097376;28;20028;-75
2021/01/29 11:51:42;;;;;;;3.93;0.20;;;9.70;99.90;;;;;;5096015;28;20036;-75
2021/01/29 11:54:11;;;;;;;;;;;9.80;99.90;;;;;;5096151;28;20020;-77
2021/01/29 11:56:54;;;;;;;1.37;0.30;;;9.70;99.90;;;;;;5097347;28;19995;-77
2021/01/29 11:59:46;;;;;;;3.08;0.30;;;9.70;99.90;;;;;;5097050;28;20106;-76
2021/01/29 12:02:28;;;;;;;1.43;0.30;;;9.70;99.90;;;;;;5095928;28;20036;-77
2021/01/29 12:05:06;;;;;;;2.50;0.20;;;9.70;99.90;;;;;;5096071;28;20111;-75
2021/01/29 12:07:39;;;;;;;1.03;0.20;;;9.70;99.90;;;;;;5096045;28;20028;-76
2021/01/29 12:10:29;;;;;;;1.98;0.40;;;9.70;99.90;;;;;;5096999;28;20107;-75
2021/01/29 12:13:06;;;;;;;0.70;0.20;;;9.70;99.90;;;;;;5096758;28;20024;-75
2021/01/29 12:16:01;;;;;;;1.17;0.20;;;9.70;99.90;;;;;;5096784;28;20043;-76
2021/01/29 12:18:32;;;;;;;1.47;0.27;;;9.70;99.80;;;;;;5095259;28;20443;-75
2021/01/29 12:21:17;;;;;;;1.90;0.30;;;9.70;99.80;;;;;;5095472;28;20365;-75
2021/01/29 12:24:04;;;;;;;0.63;0.23;;;9.70;99.80;;;;;;5095712;28;20077;-76
2021/01/29 12:26:51;;;;;;;1.77;0.27;;;9.70;99.90;;;;;;5096929;28;20032;-76
2021/01/29 12:29:40;;;;;;;3.43;0.30;;;9.80;99.90;;;;;;5096606;28;20547;-77
2021/01/29 12:32:21;;;;;;;0.50;0.20;;;9.90;99.90;;;;;;5096592;28;20077;-78
2021/01/29 12:35:02;;;;;;;0.97;0.20;;;9.90;99.90;;;;;;5095233;28;20024;-77
2021/01/29 12:37:43;;;;;;;2.97;0.20;;;9.90;99.90;;;;;;5095430;28;20028;-77
2021/01/29 12:40:32;;;;;;;1.73;0.50;;;9.90;99.90;;;;;;5095152;28;20163;-76
2021/01/29 12:43:10;;;;;;;1.20;0.20;;;9.90;99.90;;;;;;5096318;28;20032;-76
2021/01/29 12:45:41;;;;;;;3.47;0.23;;;9.90;99.90;;;;;;5095066;28;20031;-77
2021/01/29 12:48:31;;;;;;;1.20;0.37;;;9.90;99.80;;;;;;5094909;28;20056;-76
2021/01/29 12:51:04;;;;;;;1.73;0.40;;;9.80;99.70;;;;;;5096129;28;20038;-75
2021/01/29 12:53:51;;;;;;;1.38;0.28;;;9.80;99.60;;;;;;5096061;28;20388;-76
2021/01/29 12:56:21;;;;;;;3.77;0.33;;;9.70;99.50;;;;;;5094806;28;20028;-75
2021/01/29 12:58:54;;;;;;;0.63;0.20;;;9.60;99.50;;;;;;5079346;28;20032;-75
2021/01/29 13:01:35;;;;;;;2.08;0.30;;;9.50;99.40;;;;;;5074436;28;20024;-75
2021/01/29 13:04:32;;;;;;;0.87;0.23;;;9.40;99.40;;;;;;5076171;28;20025;-76
2021/01/29 13:07:00;;;;;;;1.43;0.30;;;9.40;99.40;;;;;;5088624;28;20121;-75
2021/01/29 13:09:44;;;;;;;0.80;0.20;;;9.30;99.50;;;;;;5085693;28;20029;-76
2021/01/29 13:12:16;;;;;;;1.10;0.27;;;9.30;99.50;;;;;;5093766;28;20028;-74
2021/01/29 13:14:47;;;;;;;2.03;0.30;;;9.30;99.60;;;;;;5091600;28;20138;-77
2021/01/29 13:17:31;;;;;;;0.60;0.20;;;9.30;99.60;;;;;;5094503;28;20025;-76
2021/01/29 13:20:01;;;;;;;1.35;0.30;;;9.30;99.60;;;;;;5079696;28;20033;-76
2021/01/29 13:22:35;;;;;;;1.07;0.13;;;9.20;99.60;;;;;;5074001;28;20384;-76
2021/01/29 13:25:11;;;;;;;1.07;0.30;;;9.30;99.60;;;;;;5082896;28;20449;-77
2021/01/29 13:28:13;;;;;;;2.63;0.20;;;9.20;99.60;;;;;;5088936;28;20032;-76
2021/01/29 13:30:41;;;;;;;1.50;0.20;;;9.30;99.70;;;;;;5063077;28;20043;-76
2021/01/29 13:33:27;;;;;;;0.60;0.30;;;9.30;99.60;;;;;;5074519;28;20037;-77
2021/01/29 13:36:15;;;;;;;1.13;0.20;;;9.30;99.60;;;;;;5079601;28;20034;-76
2021/01/29 13:38:42;;;;;;;1.07;0.20;;;9.20;99.60;;;;;;5094111;28;20035;-77
2021/01/29 13:41:14;;;;;;;0.20;0.10;;;9.20;99.60;;;;;;5094378;28;20028;-76
2021/01/29 13:43:42;;;;;;;1.63;0.30;;;9.10;99.50;;;;;;5094102;28;20027;-76
2021/01/29 13:46:32;;;;;;;0.43;0.20;;;9.10;99.50;;;;;;5087422;28;20028;-75
2021/01/29 13:49:30;;;;;;;1.13;0.20;;;9.10;99.50;;;;;;5072011;28;20048;-77
2021/01/29 13:51:56;;;;;;;2.03;0.20;;;9.10;99.40;;;;;;5073663;28;20040;-75
2021/01/29 13:54:34;;;;;;;1.50;0.20;;;9.10;99.40;;;;;;5073205;28;20028;-75